Time;durP1;ratioP1;P1;durP2;ratioP2;P2;SDS_P1;SDS_P2;PMS_P1;PMS_P2;Temp;Humidity;BMP_temperature;BMP_pressure;BME280_temperature;BME280_humidity;BME280_pressure;Samples;Min_cycle;Max_cycle;Signal;HPM_P1;HPM_P2
2021/11/06 00:08:25;;;;;;;1.23;0.80;;;;;;;;;;21078437;28;20044;-58
2021/11/06 00:18:28;;;;;;;1.42;0.88;;;;;;;;;;21077895;28;20044;-59
2021/11/06 00:28:30;;;;;;;1.80;0.90;;;;;;;;;;21078448;28;20048;-59
2021/11/06 00:38:32;;;;;;;1.73;0.70;;;;;;;;;;21085106;28;20138;-58
2021/11/06 00:48:35;;;;;;;1.80;0.93;;;;;;;;;;21093090;28;20036;-58
2021/11/06 00:58:37;;;;;;;1.88;1.05;;;;;;;;;;21092026;28;20059;-59
2021/11/06 01:08:39;;;;;;;1.85;0.80;;;;;;;;;;21092364;28;20047;-56
2021/11/06 01:18:42;;;;;;;2.40;0.95;;;;;;;;;;21091233;28;20044;-57
2021/11/06 01:28:44;;;;;;;2.53;1.10;;;;;;;;;;21090557;28;20519;-57
2021/11/06 01:38:47;;;;;;;2.40;1.15;;;;;;;;;;21088984;28;20189;-59
2021/11/06 01:48:48;;;;;;;1.40;0.90;;;;;;;;;;21088308;28;20138;-59
2021/11/06 01:58:51;;;;;;;2.95;1.05;;;;;;;;;;21088952;28;20056;-57
2021/11/06 02:08:53;;;;;;;1.45;0.85;;;;;;;;;;21068268;28;20044;-58
2021/11/06 02:18:56;;;;;;;1.85;0.65;;;;;;;;;;21086415;28;20078;-56
2021/11/06 02:28:59;;;;;;;1.90;0.80;;;;;;;;;;21085728;28;20044;-56
2021/11/06 02:39:03;;;;;;;1.00;0.50;;;;;;;;;;21084316;28;20195;-58
2021/11/06 02:49:06;;;;;;;1.23;0.70;;;;;;;;;;21083289;28;20177;-58
2021/11/06 02:59:09;;;;;;;0.77;0.68;;;;;;;;;;21081368;28;20062;-56
2021/11/06 03:09:14;;;;;;;1.10;0.60;;;;;;;;;;21081655;28;20123;-56
2021/11/06 03:19:21;;;;;;;2.50;2.17;;;;;;;;;;21081358;28;20507;-58
2021/11/06 03:29:24;;;;;;;2.33;0.60;;;;;;;;;;21080617;28;20438;-58
2021/11/06 03:39:28;;;;;;;1.80;0.80;;;;;;;;;;21079825;28;20051;-58
2021/11/06 03:49:31;;;;;;;1.15;0.63;;;;;;;;;;21079988;28;20059;-57
2021/11/06 03:59:34;;;;;;;1.08;0.73;;;;;;;;;;21078460;28;20048;-59
2021/11/06 04:09:37;;;;;;;1.08;0.73;;;;;;;;;;21079894;28;20044;-58
2021/11/06 04:19:43;;;;;;;1.52;0.73;;;;;;;;;;21095322;28;20554;-58
2021/11/06 04:30:05;;;;;;;2.33;0.70;;;;;;;;;;21096052;28;20126;-57
2021/11/06 04:40:26;;;;;;;1.35;0.73;;;;;;;;;;21094486;28;20463;-57
2021/11/06 04:50:48;;;;;;;1.38;0.68;;;;;;;;;;21094212;28;20044;-58
2021/11/06 05:01:01;;;;;;;1.48;0.70;;;;;;;;;;21091729;28;20131;-56
2021/11/06 05:11:10;;;;;;;0.73;0.52;;;;;;;;;;21091533;28;20082;-58
2021/11/06 05:21:15;;;;;;;1.57;0.80;;;;;;;;;;21090530;28;20075;-56
2021/11/06 05:31:19;;;;;;;0.70;0.50;;;;;;;;;;21089919;28;20051;-57
2021/11/06 05:41:24;;;;;;;1.33;0.70;;;;;;;;;;21089472;28;20058;-58
2021/11/06 05:51:27;;;;;;;0.98;0.60;;;;;;;;;;21088373;28;20060;-57
2021/11/06 06:01:31;;;;;;;0.95;0.57;;;;;;;;;;21087332;28;20056;-58
2021/11/06 06:11:34;;;;;;;1.73;0.60;;;;;;;;;;21086908;28;20358;-58
2021/11/06 06:21:36;;;;;;;1.00;0.60;;;;;;;;;;21086132;28;20503;-58
2021/11/06 06:31:40;;;;;;;0.77;0.50;;;;;;;;;;21084762;28;20090;-59
2021/11/06 06:41:43;;;;;;;1.25;0.68;;;;;;;;;;21084376;28;20408;-59
2021/11/06 06:51:45;;;;;;;1.10;0.70;;;;;;;;;;21083666;28;20058;-58
2021/11/06 07:01:48;;;;;;;2.53;0.60;;;;;;;;;;21074504;28;20056;-58
2021/11/06 07:11:51;;;;;;;1.42;0.82;;;;;;;;;;21082168;28;20048;-58
2021/11/06 07:21:53;;;;;;;1.67;1.00;;;;;;;;;;21080913;28;20081;-59
2021/11/06 07:31:55;;;;;;;1.75;0.90;;;;;;;;;;21080310;28;20056;-59
2021/11/06 07:41:58;;;;;;;1.65;1.10;;;;;;;;;;21080407;28;20485;-57
2021/11/06 07:52:01;;;;;;;3.53;1.17;;;;;;;;;;21079252;28;20381;-59
2021/11/06 08:02:03;;;;;;;3.47;1.25;;;;;;;;;;21078593;28;20055;-57
2021/11/06 08:12:06;;;;;;;2.67;1.00;;;;;;;;;;21078186;28;20048;-59
2021/11/06 08:22:10;;;;;;;1.70;1.00;;;;;;;;;;21077113;28;20052;-58
2021/11/06 08:32:13;;;;;;;2.95;0.90;;;;;;;;;;21076813;28;20073;-59
2021/11/06 08:42:15;;;;;;;1.70;0.80;;;;;;;;;;21058746;28;20086;-58
2021/11/06 08:52:20;;;;;;;2.47;1.00;;;;;;;;;;21076960;28;20390;-57
2021/11/06 09:02:22;;;;;;;1.70;0.90;;;;;;;;;;21088575;28;20052;-58
2021/11/06 09:12:24;;;;;;;2.90;1.20;;;;;;;;;;21091123;28;20052;-59
2021/11/06 09:22:27;;;;;;;3.33;1.27;;;;;;;;;;21090198;28;20487;-59
2021/11/06 09:32:29;;;;;;;1.70;0.70;;;;;;;;;;21089882;28;20048;-58
2021/11/06 09:42:31;;;;;;;1.90;0.80;;;;;;;;;;21089159;28;20048;-57
2021/11/06 09:52:34;;;;;;;1.58;0.88;;;;;;;;;;21089630;28;20446;-57
2021/11/06 10:02:37;;;;;;;1.52;0.73;;;;;;;;;;21087496;28;20067;-57
2021/11/06 10:12:54;;;;;;;2.17;1.23;;;;;;;;;;21087311;28;20059;-59
2021/11/06 10:22:58;;;;;;;1.52;0.85;;;;;;;;;;21085674;28;20059;-56
2021/11/06 10:33:04;;;;;;;2.20;0.90;;;;;;;;;;21085400;28;20381;-63
2021/11/06 10:43:06;;;;;;;1.50;0.85;;;;;;;;;;21083875;28;20438;-59
2021/11/06 10:53:09;;;;;;;2.00;0.60;;;;;;;;;;21082993;28;20052;-58
2021/11/06 11:03:22;;;;;;;1.15;0.60;;;;;;;;;;21066943;28;20083;-60
2021/11/06 11:13:25;;;;;;;0.93;0.57;;;;;;;;;;21081100;28;20450;-57
2021/11/06 11:23:28;;;;;;;0.70;0.50;;;;;;;;;;21076161;28;20044;-60
2021/11/06 11:33:31;;;;;;;0.52;0.43;;;;;;;;;;21081042;28;20095;-60
2021/11/06 11:43:57;;;;;;;1.77;0.70;;;;;;;;;;21079509;28;20092;-60
2021/11/06 11:54:01;;;;;;;1.88;0.98;;;;;;;;;;20821392;28;20073;-57
2021/11/06 12:04:17;;;;;;;1.67;0.80;;;;;;;;;;20820281;28;20053;-59
2021/11/06 12:14:24;;;;;;;2.42;0.60;;;;;;;;;;20819861;28;20049;-59
2021/11/06 12:24:28;;;;;;;1.77;0.70;;;;;;;;;;20879989;28;20178;-60
2021/11/06 12:34:41;;;;;;;1.10;0.73;;;;;;;;;;21085852;28;20131;-59
2021/11/06 12:45:00;;;;;;;1.70;0.52;;;;;;;;;;21095146;28;20485;-58
2021/11/06 12:55:03;;;;;;;1.35;0.70;;;;;;;;;;21093027;28;20055;-61
2021/11/06 13:05:05;;;;;;;1.38;0.85;;;;;;;;;;21092218;28;20066;-58
2021/11/06 13:15:07;;;;;;;1.70;0.70;;;;;;;;;;21073044;28;20048;-59
2021/11/06 13:25:11;;;;;;;1.52;0.80;;;;;;;;;;21090030;28;20059;-58
2021/11/06 13:35:17;;;;;;;1.67;0.90;;;;;;;;;;21089650;28;20050;-59
2021/11/06 13:45:21;;;;;;;2.53;0.85;;;;;;;;;;21089676;28;20101;-58
2021/11/06 13:55:23;;;;;;;2.00;1.00;;;;;;;;;;21087984;28;20052;-58
2021/11/06 14:05:26;;;;;;;1.30;0.70;;;;;;;;;;21088416;28;20052;-56
2021/11/06 14:15:38;;;;;;;1.50;0.90;;;;;;;;;;21086644;28;20518;-59
2021/11/06 14:25:45;;;;;;;2.75;0.80;;;;;;;;;;21085297;28;20050;-58
2021/11/06 14:35:48;;;;;;;2.10;1.10;;;;;;;;;;21084786;28;20047;-58
2021/11/06 14:45:56;;;;;;;3.15;0.90;;;;;;;;;;21065730;28;20048;-57
2021/11/06 14:56:02;;;;;;;2.97;1.02;;;;;;;;;;21083127;28;20092;-58
2021/11/06 15:06:09;;;;;;;2.40;1.02;;;;;;;;;;21082320;28;20071;-58
2021/11/06 15:16:11;;;;;;;2.88;1.38;;;;;;;;;;21082316;28;20472;-59
2021/11/06 15:26:12;;;;;;;1.98;0.90;;;;;;;;;;21082056;28;20048;-60
2021/11/06 15:36:15;;;;;;;1.23;0.73;;;;;;;;;;21079900;28;20044;-60
2021/11/06 15:46:17;;;;;;;1.52;0.63;;;;;;;;;;21080468;28;20055;-59
2021/11/06 15:56:19;;;;;;;2.05;0.90;;;;;;;;;;21079808;28;20052;-60
2021/11/06 16:06:21;;;;;;;1.00;0.70;;;;;;;;;;21079126;28;20076;-60
2021/11/06 16:16:27;;;;;;;;;;;;;;;;;;21079326;28;20054;-58
2021/11/06 16:26:29;;;;;;;1.65;0.70;;;;;;;;;;21077945;28;20372;-58
2021/11/06 16:36:32;;;;;;;2.08;0.98;;;;;;;;;;21077766;28;20096;-59
2021/11/06 16:46:34;;;;;;;2.10;1.00;;;;;;;;;;21076550;28;20408;-60
2021/11/06 16:56:36;;;;;;;3.58;2.53;;;;;;;;;;21076502;28;20048;-58
2021/11/06 17:06:44;;;;;;;2.63;1.58;;;;;;;;;;21075862;28;20048;-58
2021/11/06 17:16:46;;;;;;;2.63;1.40;;;;;;;;;;21067561;28;20059;-59
2021/11/06 17:26:48;;;;;;;1.90;1.20;;;;;;;;;;21090444;28;20507;-59
2021/11/06 17:36:51;;;;;;;2.97;1.35;;;;;;;;;;21089121;28;20044;-60
2021/11/06 17:46:54;;;;;;;3.80;1.38;;;;;;;;;;21089353;28;20473;-59
2021/11/06 17:56:57;;;;;;;2.88;1.27;;;;;;;;;;21087147;28;20056;-58
2021/11/06 18:06:59;;;;;;;4.70;2.15;;;;;;;;;;21086678;28;20044;-57
2021/11/06 18:17:01;;;;;;;4.10;2.28;;;;;;;;;;21086187;28;20047;-59
2021/11/06 18:27:04;;;;;;;5.38;2.70;;;;;;;;;;21084833;28;20052;-58
2021/11/06 18:37:06;;;;;;;9.13;3.17;;;;;;;;;;21084224;28;20097;-58
2021/11/06 18:47:11;;;;;;;6.10;3.13;;;;;;;;;;21084702;28;20519;-59
2021/11/06 18:57:13;;;;;;;9.20;4.13;;;;;;;;;;21064275;28;20056;-58
2021/11/06 19:07:15;;;;;;;7.93;4.05;;;;;;;;;;21082381;28;20330;-58
2021/11/06 19:17:17;;;;;;;11.35;5.50;;;;;;;;;;21081888;28;20154;-59
2021/11/06 19:37:54;;;;;;;9.20;4.47;;;;;;;;;;20822269;28;20384;-63
2021/11/06 19:48:00;;;;;;;9.80;5.15;;;;;;;;;;20821394;28;20461;-58
2021/11/06 19:58:03;;;;;;;6.25;4.07;;;;;;;;;;20821347;28;20045;-59
2021/11/06 20:08:07;;;;;;;10.13;4.57;;;;;;;;;;20909084;28;20135;-59
2021/11/06 20:18:09;;;;;;;8.93;4.95;;;;;;;;;;21060217;28;20464;-58
2021/11/06 20:28:11;;;;;;;9.75;4.30;;;;;;;;;;21077391;28;20052;-58
2021/11/06 20:38:13;;;;;;;9.68;5.25;;;;;;;;;;21076959;28;20162;-58
2021/11/06 20:48:15;;;;;;;13.13;7.32;;;;;;;;;;21077583;28;20059;-57
2021/11/06 20:58:18;;;;;;;10.30;4.32;;;;;;;;;;21089445;28;20052;-61
2021/11/06 21:08:20;;;;;;;6.40;5.13;;;;;;;;;;21091680;28;20052;-59
2021/11/06 21:28:27;;;;;;;6.80;4.23;;;;;;;;;;21091051;28;20382;-56
2021/11/06 21:38:32;;;;;;;9.40;5.32;;;;;;;;;;21090149;28;20050;-57
2021/11/06 21:48:34;;;;;;;9.65;4.63;;;;;;;;;;21071599;28;20048;-56
2021/11/06 21:58:40;;;;;;;8.43;5.63;;;;;;;;;;21088202;28;20473;-55
2021/11/06 22:08:42;;;;;;;14.43;7.35;;;;;;;;;;21069214;28;20047;-56
2021/11/06 22:18:47;;;;;;;18.17;8.88;;;;;;;;;;21087059;28;20052;-56
2021/11/06 22:28:51;;;;;;;20.58;10.82;;;;;;;;;;21085502;28;20090;-57
2021/11/06 22:38:54;;;;;;;10.85;6.45;;;;;;;;;;21085241;28;20055;-59
2021/11/06 22:48:58;;;;;;;9.10;5.95;;;;;;;;;;21085068;28;20075;-57
2021/11/06 22:59:01;;;;;;;10.05;5.00;;;;;;;;;;21084120;28;20056;-57
2021/11/06 23:09:05;;;;;;;7.65;4.82;;;;;;;;;;21082906;28;20048;-59
2021/11/06 23:19:11;;;;;;;7.83;5.00;;;;;;;;;;21082306;28;20052;-57
2021/11/06 23:29:15;;;;;;;;;;;;;;;;;;21081619;28;20055;-59
2021/11/06 23:39:17;;;;;;;8.52;4.82;;;;;;;;;;21080643;28;19920;-59
2021/11/06 23:49:21;;;;;;;9.15;5.60;;;;;;;;;;21080492;28;20492;-58
2021/11/06 23:59:29;;;;;;;8.32;5.45;;;;;;;;;;21079595;28;20182;-59
